Time;durP1;ratioP1;P1;durP2;ratioP2;P2;SDS_P1;SDS_P2;PMS_P1;PMS_P2;Temp;Humidity;BMP_temperature;BMP_pressure;BME280_temperature;BME280_humidity;BME280_pressure;Samples;Min_cycle;Max_cycle;Signal;HPM_P1;HPM_P2
2021/12/07 00:01:04;;;;;;;46.15;27.02;;;;;;;0.42;72.83;100533.59;4164675;28;20100;-58
2021/12/07 00:03:07;;;;;;;46.25;25.70;;;;;;;0.41;73.18;100544.63;4164786;28;20049;-61
2021/12/07 00:05:11;;;;;;;43.42;26.80;;;;;;;0.44;72.73;100532.00;4163923;28;20034;-61
2021/12/07 00:07:15;;;;;;;41.90;26.25;;;;;;;0.42;72.42;100523.38;4163898;28;20057;-64
2021/12/07 00:09:19;;;;;;;47.25;28.45;;;;;;;0.48;72.90;100534.84;4159753;28;20057;-62
2021/12/07 00:11:24;;;;;;;43.28;25.88;;;;;;;0.52;72.37;100518.84;4147181;28;20152;-58
2021/12/07 00:13:32;;;;;;;42.83;26.20;;;;;;;0.57;72.28;100511.44;4163795;28;20046;-57
2021/12/07 00:15:36;;;;;;;45.33;28.05;;;;;;;0.59;72.80;100514.97;4163923;28;20099;-57
2021/12/07 00:17:40;;;;;;;41.75;26.17;;;;;;;0.59;71.97;100514.97;4163162;28;20088;-58
2021/12/07 00:19:43;;;;;;;47.03;26.75;;;;;;;0.55;72.30;100507.91;4162621;28;20067;-60
2021/12/07 00:21:47;;;;;;;44.65;25.50;;;;;;;0.51;72.82;100504.31;4163627;28;20548;-59
2021/12/07 00:23:52;;;;;;;46.47;26.52;;;;;;;0.46;72.21;100502.28;4145507;28;20443;-59
2021/12/07 00:26:12;;;;;;;48.72;27.80;;;;;;;0.38;73.01;100496.75;4163740;28;20051;-60
2021/12/07 00:28:19;;;;;;;45.47;28.45;;;;;;;0.32;72.53;100498.94;4159729;28;20080;-60
2021/12/07 00:30:27;;;;;;;42.63;26.15;;;;;;;0.28;72.71;100490.25;4146773;28;20049;-59
2021/12/07 00:32:32;;;;;;;44.40;25.88;;;;;;;0.27;72.89;100496.16;4161868;28;20091;-59
2021/12/07 00:34:45;;;;;;;43.10;26.45;;;;;;;0.27;72.89;100492.72;4147128;28;20041;-60
2021/12/07 00:36:49;;;;;;;44.22;26.23;;;;;;;0.23;73.76;100488.22;4163491;28;20075;-59
2021/12/07 00:38:52;;;;;;;42.50;27.13;;;;;;;0.24;73.40;100490.88;4163871;28;20037;-60
2021/12/07 00:40:58;;;;;;;44.33;25.88;;;;;;;0.29;73.52;100484.34;4163266;28;20160;-59
2021/12/07 00:43:01;;;;;;;44.35;26.75;;;;;;;0.37;72.99;100486.44;4163678;28;20049;-59
2021/12/07 00:45:08;;;;;;;46.22;26.65;;;;;;;0.49;73.22;100492.22;4162392;28;20053;-61
2021/12/07 00:47:11;;;;;;;43.67;25.73;;;;;;;0.57;73.18;100487.53;4162655;28;20406;-60
2021/12/07 00:49:15;;;;;;;42.85;25.60;;;;;;;0.65;72.79;100484.59;4162651;28;20095;-58
2021/12/07 00:51:18;;;;;;;44.72;26.67;;;;;;;0.73;72.15;100486.69;4163416;28;20051;-62
2021/12/07 00:53:22;;;;;;;43.65;25.58;;;;;;;0.80;72.62;100488.78;4163071;28;20096;-58
2021/12/07 00:55:28;;;;;;;40.35;25.55;;;;;;;0.86;72.35;100494.22;4162494;28;20124;-59
2021/12/07 00:57:31;;;;;;;41.65;25.73;;;;;;;0.92;72.21;100484.34;4163357;28;20049;-57
2021/12/07 00:59:35;;;;;;;42.65;25.42;;;;;;;1.02;71.81;100485.69;4162612;28;20079;-59
2021/12/07 01:01:41;;;;;;;;;;;;;;;0.97;71.13;100487.13;4146244;28;20147;-59
2021/12/07 01:03:45;;;;;;;39.05;24.25;;;;;;;1.03;71.63;100477.22;4162627;28;20414;-61
2021/12/07 01:05:51;;;;;;;41.10;24.92;;;;;;;1.07;71.28;100473.13;4163473;28;20068;-60
2021/12/07 01:08:12;;;;;;;38.40;25.35;;;;;;;1.10;70.95;100481.84;4162651;28;20040;-61
2021/12/07 01:24:43;;;;;;;47.85;27.38;;;;;;;1.12;70.26;100452.09;4145612;28;20053;-59
2021/12/07 01:26:48;;;;;;;38.00;23.65;;;;;;;1.07;70.46;100455.19;4157901;28;20042;-59
2021/12/07 01:28:51;;;;;;;36.33;23.05;;;;;;;0.99;70.51;100445.47;4145608;28;20107;-60
2021/12/07 01:30:59;;;;;;;35.65;22.42;;;;;;;0.99;70.16;100442.91;4145443;28;20104;-59
2021/12/07 01:33:22;;;;;;;40.13;24.48;;;;;;;0.97;70.16;100436.81;4144285;28;20092;-61
2021/12/07 01:35:47;;;;;;;38.55;23.40;;;;;;;0.96;70.37;100431.63;4163036;28;20037;-61
2021/12/07 01:38:09;;;;;;;37.30;23.55;;;;;;;0.95;70.26;100438.41;4136137;28;20061;-58
2021/12/07 01:40:31;;;;;;;39.63;23.92;;;;;;;0.96;70.54;100440.16;4144614;28;20046;-58
2021/12/07 01:43:13;;;;;;;38.45;22.33;;;;;;;0.98;70.17;100437.69;4145376;28;20057;-59
2021/12/07 01:45:48;;;;;;;39.17;23.08;;;;;;;1.02;70.16;100440.50;4145472;28;20046;-61
2021/12/07 01:47:58;;;;;;;40.47;23.45;;;;;;;1.03;69.79;100436.25;4158326;28;20112;-57
2021/12/07 01:52:43;;;;;;;39.75;22.05;;;;;;;0.98;70.02;100424.88;4105213;28;20080;-58
2021/12/07 01:59:35;;;;;;;36.78;23.23;;;;;;;0.75;70.10;100410.91;4161301;28;20052;-59
2021/12/07 02:01:39;;;;;;;34.15;20.33;;;;;;;0.64;70.80;100400.97;4162855;28;20331;-60
2021/12/07 02:03:42;;;;;;;34.05;21.20;;;;;;;0.55;71.23;100405.59;4136101;28;20054;-58
2021/12/07 02:05:47;;;;;;;33.15;21.15;;;;;;;0.54;70.59;100402.94;4147652;28;20041;-59
2021/12/07 02:07:50;;;;;;;37.80;21.70;;;;;;;0.42;70.82;100404.03;4163855;28;20045;-60
2021/12/07 02:09:58;;;;;;;33.65;20.58;;;;;;;0.39;71.80;100408.13;4147046;28;20066;-58
2021/12/07 02:12:03;;;;;;;35.75;21.58;;;;;;;0.38;71.34;100404.72;4148272;28;20062;-60
2021/12/07 02:14:16;;;;;;;32.58;21.95;;;;;;;0.34;72.30;100397.66;4166084;28;20057;-60
2021/12/07 02:16:22;;;;;;;36.17;21.80;;;;;;;0.34;71.54;100401.09;4164943;28;20049;-60
2021/12/07 02:18:25;;;;;;;36.50;22.30;;;;;;;0.31;72.12;100385.59;4148631;28;20060;-59
2021/12/07 02:20:30;;;;;;;35.92;22.55;;;;;;;0.30;71.99;100383.81;4271263;23;20053;-60
2021/12/07 02:22:36;;;;;;;35.38;20.80;;;;;;;0.26;71.66;100381.88;4164272;28;20132;-61
2021/12/07 02:24:39;;;;;;;35.03;21.35;;;;;;;0.25;71.56;100369.91;4165074;28;20049;-59
2021/12/07 02:26:43;;;;;;;35.50;21.75;;;;;;;0.23;71.60;100376.59;4180826;28;20116;-58
2021/12/07 02:28:49;;;;;;;34.78;20.98;;;;;;;0.21;71.48;100378.22;4164846;28;20323;-61
2021/12/07 02:30:52;;;;;;;37.50;21.98;;;;;;;0.20;71.94;100368.78;4163896;28;20034;-60
2021/12/07 02:32:55;;;;;;;33.58;20.45;;;;;;;0.20;72.60;100371.31;4165298;28;20033;-57
2021/12/07 02:35:00;;;;;;;36.90;22.52;;;;;;;0.20;71.97;100378.13;4163978;28;20538;-60
2021/12/07 02:37:05;;;;;;;37.60;20.92;;;;;;;0.18;72.14;100362.72;4148702;28;20573;-59
2021/12/07 02:39:12;;;;;;;37.08;23.15;;;;;;;0.18;71.73;100367.81;4165191;28;20041;-62
2021/12/07 02:41:17;;;;;;;38.90;23.50;;;;;;;0.19;72.51;100366.13;4147384;28;20080;-59
2021/12/07 02:43:21;;;;;;;40.22;24.10;;;;;;;0.17;71.65;100363.50;4148211;28;20305;-59
2021/12/07 02:45:26;;;;;;;33.67;20.40;;;;;;;0.16;72.34;100364.28;4147726;28;20041;-59
2021/12/07 02:47:29;;;;;;;41.15;23.35;;;;;;;0.17;71.63;100351.59;4148394;28;20084;-64
2021/12/07 02:49:32;;;;;;;33.28;21.20;;;;;;;0.15;72.43;100352.31;4165307;28;20526;-58
2021/12/07 02:51:36;;;;;;;34.33;21.63;;;;;;;0.16;72.54;100349.84;4165445;28;20116;-59
2021/12/07 02:53:41;;;;;;;41.30;24.88;;;;;;;0.17;71.61;100350.72;4146716;28;20074;-58
2021/12/07 02:55:46;;;;;;;38.97;22.27;;;;;;;0.12;72.04;100347.91;4166142;28;20152;-60
2021/12/07 02:57:49;;;;;;;37.22;22.35;;;;;;;0.09;71.76;100351.97;4147799;28;20471;-58
2021/12/07 03:00:01;;;;;;;38.95;24.08;;;;;;;0.06;72.52;100354.34;4180083;28;20037;-55
2021/12/07 03:02:08;;;;;;;39.97;24.10;;;;;;;0.05;72.73;100350.94;4147965;28;20120;-59
2021/12/07 03:04:20;;;;;;;38.20;23.13;;;;;;;0.06;72.73;100351.81;4147182;28;20049;-57
2021/12/07 03:06:32;;;;;;;42.72;24.83;;;;;;;0.03;73.07;100346.53;4164318;28;20045;-60
2021/12/07 03:27:29;;;;;;;40.20;23.63;;;;;;;-0.09;72.94;100357.84;4167427;28;20041;-59
2021/12/07 03:29:33;;;;;;;39.17;22.38;;;;;;;-0.10;73.29;100358.63;4168581;28;20125;-58
2021/12/07 03:31:36;;;;;;;35.95;22.60;;;;;;;-0.11;72.95;100368.78;4190360;28;20040;-59
2021/12/07 03:33:40;;;;;;;37.42;22.38;;;;;;;-0.11;73.75;100369.66;4179690;28;20459;-59
2021/12/07 03:35:43;;;;;;;39.40;24.38;;;;;;;-0.11;73.58;100361.97;4181861;28;20053;-59
2021/12/07 03:37:46;;;;;;;40.67;23.23;;;;;;;-0.10;73.90;100368.88;4180082;28;20095;-54
2021/12/07 03:39:50;;;;;;;38.72;23.17;;;;;;;-0.10;74.16;100373.97;4164705;28;20454;-59
2021/12/07 03:41:53;;;;;;;38.60;22.85;;;;;;;-0.11;73.18;100372.19;4194956;28;20048;-58
2021/12/07 03:43:58;;;;;;;41.00;23.58;;;;;;;-0.09;73.51;100368.06;4180204;28;20045;-59
2021/12/07 03:46:02;;;;;;;43.83;23.55;;;;;;;-0.08;74.01;100374.06;4164882;28;20054;-58
2021/12/07 03:48:07;;;;;;;41.15;23.23;;;;;;;-0.07;72.96;100371.59;4172579;28;20044;-60
2021/12/07 03:50:12;;;;;;;;;;;;;;;-0.19;73.35;100382.00;4179233;28;20071;-59
2021/12/07 03:52:15;;;;;;;37.88;23.48;;;;;;;-0.17;73.65;100369.31;4178145;28;19931;-59
2021/12/07 03:54:19;;;;;;;42.35;25.42;;;;;;;-0.14;74.46;100366.94;4179515;28;20074;-59
2021/12/07 03:56:23;;;;;;;38.58;22.98;;;;;;;-0.13;73.82;100368.69;4179960;28;20053;-60
2021/12/07 03:58:29;;;;;;;43.33;26.30;;;;;;;-0.08;73.80;100369.81;4179667;28;20041;-61
2021/12/07 04:02:50;;;;;;;41.30;24.33;;;;;;;-0.08;73.84;100369.81;4188137;22;20053;-58
2021/12/07 04:05:01;;;;;;;38.95;24.27;;;;;;;-0.07;73.72;100366.47;4168413;28;20045;-58
2021/12/07 04:07:06;;;;;;;45.30;26.67;;;;;;;-0.07;73.85;100369.03;4182062;28;20044;-61
2021/12/07 04:09:10;;;;;;;41.90;25.58;;;;;;;-0.12;73.83;100367.88;4167945;28;20426;-62
2021/12/07 04:11:14;;;;;;;37.22;23.58;;;;;;;-0.14;73.57;100364.38;4194694;28;20161;-58
2021/12/07 04:13:17;;;;;;;45.00;24.67;;;;;;;-0.14;74.18;100361.81;4166224;28;20129;-61
2021/12/07 04:15:21;;;;;;;40.42;24.02;;;;;;;-0.17;73.78;100364.22;4173663;28;20527;-60
2021/12/07 04:17:24;;;;;;;42.78;25.08;;;;;;;-0.17;74.75;100374.44;4179591;28;20591;-59
2021/12/07 04:19:28;;;;;;;41.10;25.08;;;;;;;-0.18;73.63;100375.22;4195619;28;20090;-61
2021/12/07 04:21:31;;;;;;;42.45;24.85;;;;;;;-0.21;74.14;100377.59;4179196;28;20456;-58
2021/12/07 04:23:36;;;;;;;42.42;25.10;;;;;;;-0.20;73.62;100375.13;4179520;28;20328;-60
2021/12/07 04:25:39;;;;;;;40.75;24.08;;;;;;;-0.21;73.87;100372.47;4180906;28;20457;-61
2021/12/07 04:27:43;;;;;;;41.72;25.15;;;;;;;-0.20;73.69;100366.59;4180519;28;20051;-61
2021/12/07 04:29:46;;;;;;;39.67;23.30;;;;;;;-0.21;74.83;100364.81;4179710;28;20044;-60
2021/12/07 04:31:49;;;;;;;41.25;24.52;;;;;;;-0.21;73.67;100375.03;4178714;28;20041;-57
2021/12/07 04:33:52;;;;;;;41.35;25.08;;;;;;;-0.23;73.83;100372.41;4179931;28;20036;-62
2021/12/07 04:35:57;;;;;;;41.58;23.75;;;;;;;-0.22;74.79;100374.19;4181290;28;20059;-59
2021/12/07 04:38:00;;;;;;;42.80;25.35;;;;;;;-0.22;74.71;100375.81;4180875;28;20064;-58
2021/12/07 04:40:05;;;;;;;40.55;23.50;;;;;;;-0.24;74.78;100372.31;4179088;28;20119;-60
2021/12/07 04:42:08;;;;;;;45.28;24.55;;;;;;;-0.25;74.99;100378.22;4180480;28;20040;-59
2021/12/07 04:44:11;;;;;;;41.30;24.90;;;;;;;-0.24;74.86;100372.31;4180595;28;20044;-62
2021/12/07 04:46:19;;;;;;;39.63;24.13;;;;;;;-0.24;74.50;100373.19;4180767;28;20049;-61
2021/12/07 04:58:00;;;;;;;39.80;23.75;;;;;;;-0.32;74.27;100371.91;4163176;28;20057;-60
2021/12/07 05:00:05;;;;;;;44.22;24.80;;;;;;;-0.29;75.26;100374.63;4180056;28;20060;-58
2021/12/07 05:02:08;;;;;;;38.78;23.80;;;;;;;-0.29;74.50;100373.72;4181313;28;20041;-60
2021/12/07 05:04:16;;;;;;;41.88;25.23;;;;;;;-0.30;74.17;100377.09;4181241;28;20049;-59
2021/12/07 05:06:22;;;;;;;39.15;23.83;;;;;;;-0.30;74.99;100377.09;4180637;28;20452;-60
2021/12/07 05:08:36;;;;;;;44.75;25.67;;;;;;;-0.28;74.24;100380.59;4177531;28;20071;-60
2021/12/07 05:11:01;;;;;;;44.95;25.92;;;;;;;-0.30;74.66;100371.97;4167455;28;20049;-60
2021/12/07 05:13:27;;;;;;;40.53;23.42;;;;;;;-0.34;75.03;100375.16;4180482;28;20128;-59
2021/12/07 05:15:54;;;;;;;44.25;25.10;;;;;;;-0.34;75.01;100380.25;4180708;28;20075;-60
2021/12/07 05:18:07;;;;;;;43.58;25.70;;;;;;;-0.34;74.84;100375.16;4179188;28;20059;-60
2021/12/07 05:25:20;;;;;;;43.10;25.05;;;;;;;-0.32;75.25;100378.66;4180491;28;20079;-60
2021/12/07 05:37:39;;;;;;;42.70;24.20;;;;;;;-0.42;75.65;100367.94;4129086;28;20078;-58
2021/12/07 05:39:33;;;;;;;46.80;25.77;;;;;;;-0.36;74.95;100373.38;4174200;28;20033;-60
2021/12/07 05:41:37;;;;;;;42.13;25.92;;;;;;;-0.34;74.94;100377.72;4180665;28;20048;-63
2021/12/07 05:43:41;;;;;;;46.17;25.20;;;;;;;-0.32;75.54;100383.75;4174286;28;20041;-62
2021/12/07 05:45:44;;;;;;;41.85;24.50;;;;;;;-0.32;74.69;100379.56;4175496;28;20049;-60
2021/12/07 05:47:48;;;;;;;42.53;26.40;;;;;;;-0.31;74.60;100376.19;4198621;28;20071;-62
2021/12/07 05:49:51;;;;;;;45.47;27.15;;;;;;;-0.29;75.38;100383.94;4183168;28;20413;-60
2021/12/07 05:51:54;;;;;;;43.22;24.55;;;;;;;-0.30;74.46;100388.19;4177749;28;20080;-61
2021/12/07 05:59:00;;;;;;;44.92;25.88;;;;;;;-0.27;74.98;100384.91;534526;26;21145;-58
2021/12/07 06:01:04;;;;;;;44.80;28.33;;;;;;;-0.30;76.06;100384.75;4164226;28;20055;-60
2021/12/07 06:03:08;;;;;;;44.88;26.55;;;;;;;-0.27;75.09;100377.25;4183016;28;20489;-56
2021/12/07 06:05:12;;;;;;;41.45;24.67;;;;;;;-0.27;75.45;100385.78;4183407;28;20049;-61
2021/12/07 06:07:15;;;;;;;44.97;25.90;;;;;;;-0.23;75.06;100391.97;4183904;28;20044;-60
2021/12/07 06:09:18;;;;;;;45.22;26.90;;;;;;;-0.24;74.84;100385.97;4183322;28;20049;-57
2021/12/07 06:11:23;;;;;;;41.67;24.67;;;;;;;-0.20;75.40;100389.59;4182756;28;20041;-58
2021/12/07 06:13:27;;;;;;;43.65;25.35;;;;;;;-0.19;74.84;100393.88;4181674;28;20091;-60
2021/12/07 06:15:34;;;;;;;49.20;27.67;;;;;;;-0.18;74.97;100385.44;4183355;28;20473;-60
2021/12/07 06:17:37;;;;;;;45.88;26.05;;;;;;;-0.17;75.57;100388.88;4182419;28;20044;-59
2021/12/07 06:19:41;;;;;;;49.33;27.42;;;;;;;-0.16;75.44;100395.72;4182470;28;20044;-57
2021/12/07 06:21:44;;;;;;;47.67;28.40;;;;;;;-0.16;74.93;100390.63;4182826;28;20049;-60
2021/12/07 06:23:47;;;;;;;44.85;26.33;;;;;;;-0.21;74.90;100387.81;4181676;28;20071;-57
2021/12/07 06:25:51;;;;;;;44.28;27.13;;;;;;;-0.15;75.57;100387.28;4169772;28;20098;-58
2021/12/07 06:27:54;;;;;;;44.15;26.45;;;;;;;-0.15;74.61;100388.16;4183286;28;20041;-58
2021/12/07 06:29:57;;;;;;;44.17;26.30;;;;;;;-0.14;74.79;100384.81;4182237;28;20068;-57
2021/12/07 06:32:02;;;;;;;48.78;28.02;;;;;;;-0.13;75.18;100383.13;4182212;28;20069;-59
2021/12/07 06:34:05;;;;;;;45.67;27.35;;;;;;;-0.15;74.96;100383.03;4181060;28;20081;-61
2021/12/07 06:36:09;;;;;;;44.30;27.30;;;;;;;-0.15;74.72;100385.59;4182236;28;20490;-57
2021/12/07 06:38:12;;;;;;;42.00;25.17;;;;;;;-0.16;75.86;100391.53;4182955;28;20136;-60
2021/12/07 06:40:15;;;;;;;47.35;29.13;;;;;;;-0.18;75.95;100390.53;4188699;23;20041;-59
2021/12/07 06:42:19;;;;;;;49.08;28.40;;;;;;;-0.15;76.06;100400.94;4182960;28;20501;-53
2021/12/07 06:44:22;;;;;;;49.60;27.70;;;;;;;-0.06;76.10;100398.91;4180357;28;20041;-58
2021/12/07 06:46:26;;;;;;;48.22;30.33;;;;;;;0.10;76.41;100400.63;4183044;28;20047;-60
2021/12/07 06:48:30;;;;;;;45.75;26.48;;;;;;;0.23;74.89;100404.72;4191092;28;20041;-60
2021/12/07 06:50:34;;;;;;;45.88;26.90;;;;;;;0.29;75.51;100417.88;4179948;28;20067;-60
2021/12/07 06:52:37;;;;;;;44.38;26.67;;;;;;;0.38;75.31;100411.47;4180905;28;20098;-58
2021/12/07 06:54:40;;;;;;;45.30;26.90;;;;;;;0.43;73.95;100423.72;4187189;28;20044;-54
2021/12/07 06:56:44;;;;;;;44.67;26.52;;;;;;;0.49;74.41;100423.19;4179362;28;20104;-55
2021/12/07 06:58:47;;;;;;;43.33;26.77;;;;;;;0.52;73.56;100424.19;4182193;28;20041;-60
2021/12/07 07:00:50;;;;;;;40.78;24.90;;;;;;;0.55;74.04;100426.06;4178549;28;20037;-53
2021/12/07 07:02:53;;;;;;;41.28;25.15;;;;;;;0.59;74.07;100427.13;4182861;28;20056;-58
2021/12/07 07:04:58;;;;;;;44.88;26.70;;;;;;;0.65;73.36;100424.88;4182718;28;20041;-54
2021/12/07 07:07:01;;;;;;;39.65;24.30;;;;;;;0.67;73.66;100436.06;4162980;28;20045;-55
2021/12/07 07:09:04;;;;;;;40.30;25.25;;;;;;;0.71;73.04;100438.00;4176072;28;20091;-57
2021/12/07 07:11:08;;;;;;;38.75;23.60;;;;;;;0.73;73.15;100435.50;4171902;28;20060;-56
2021/12/07 07:13:12;;;;;;;45.50;24.70;;;;;;;0.75;73.71;100433.94;4181998;28;20045;-56
2021/12/07 07:15:16;;;;;;;43.83;27.08;;;;;;;0.78;73.29;100434.09;4164689;28;20038;-59
2021/12/07 07:17:19;;;;;;;41.17;26.33;;;;;;;0.78;73.66;100436.66;4182807;28;20421;-58
2021/12/07 07:19:24;;;;;;;44.28;26.17;;;;;;;0.80;73.54;100440.16;4182499;28;20041;-58
2021/12/07 07:21:28;;;;;;;43.92;26.25;;;;;;;0.82;72.65;100441.13;4174868;28;20037;-58
2021/12/07 07:23:32;;;;;;;45.72;28.27;;;;;;;0.81;73.21;100434.25;4163780;28;20045;-61
2021/12/07 07:25:36;;;;;;;45.30;26.60;;;;;;;0.80;72.64;100440.16;4162886;28;20048;-58
2021/12/07 07:27:39;;;;;;;41.22;26.52;;;;;;;0.81;72.71;100439.38;4181410;28;20490;-55
2021/12/07 07:29:43;;;;;;;41.85;25.27;;;;;;;0.75;72.79;100445.03;4182417;28;20048;-57
2021/12/07 07:31:46;;;;;;;42.97;25.60;;;;;;;0.69;72.81;100439.59;4178556;28;20080;-62
2021/12/07 07:33:49;;;;;;;48.05;27.13;;;;;;;0.66;72.79;100445.44;4182215;28;20040;-57
2021/12/07 07:35:53;;;;;;;43.53;25.95;;;;;;;0.65;73.67;100456.44;4181604;28;20044;-58
2021/12/07 07:37:58;;;;;;;43.80;25.05;;;;;;;0.67;73.64;100449.75;4182169;28;20041;-56
2021/12/07 07:40:01;;;;;;;39.42;24.80;;;;;;;0.71;73.76;100442.25;4178099;28;20091;-57
2021/12/07 07:42:08;;;;;;;41.70;26.58;;;;;;;0.80;72.83;100448.72;4178829;28;20041;-58
2021/12/07 07:44:26;;;;;;;45.67;25.05;;;;;;;0.76;72.72;100451.94;4174232;28;20049;-60
2021/12/07 07:46:29;;;;;;;44.05;25.60;;;;;;;0.75;73.34;100460.38;4181243;28;20576;-57
2021/12/07 07:48:33;;;;;;;41.80;26.50;;;;;;;0.78;72.86;100449.44;4181598;28;20548;-58
2021/12/07 07:50:37;;;;;;;41.63;26.38;;;;;;;0.83;72.67;100453.13;4180558;28;20075;-60
2021/12/07 07:52:40;;;;;;;42.20;25.42;;;;;;;0.82;72.86;100456.50;4181819;28;20158;-55
2021/12/07 07:54:45;;;;;;;40.65;24.92;;;;;;;0.83;73.00;100455.66;4176334;28;20041;-59
2021/12/07 07:56:48;;;;;;;38.53;24.85;;;;;;;1.07;74.48;100462.88;4158239;28;20056;-62
2021/12/07 07:58:54;;;;;;;39.55;24.77;;;;;;;1.19;72.74;100463.53;4178094;28;20049;-60
2021/12/07 08:00:57;;;;;;;36.42;24.10;;;;;;;1.25;72.52;100463.84;4180232;28;20489;-59
2021/12/07 08:03:01;;;;;;;37.67;23.10;;;;;;;1.33;72.36;100472.81;4182072;28;20482;-62
2021/12/07 08:05:05;;;;;;;39.70;23.33;;;;;;;1.37;72.17;100474.75;4178892;28;20445;-59
2021/12/07 08:07:09;;;;;;;38.40;24.67;;;;;;;1.39;71.83;100467.13;4179702;28;20041;-59
2021/12/07 08:09:13;;;;;;;40.20;23.85;;;;;;;1.42;71.67;100476.63;4187900;28;20052;-60
2021/12/07 08:11:18;;;;;;;37.10;23.80;;;;;;;1.39;71.36;100478.25;4180966;28;20174;-58
2021/12/07 08:13:29;;;;;;;41.47;25.63;;;;;;;1.40;71.25;100471.44;4183565;28;20040;-58
2021/12/07 08:15:36;;;;;;;41.22;24.13;;;;;;;1.46;71.72;100483.69;4173770;28;20049;-60
2021/12/07 08:17:39;;;;;;;40.58;23.73;;;;;;;1.53;71.55;100481.53;4174240;28;20055;-60
2021/12/07 08:19:42;;;;;;;41.42;24.58;;;;;;;1.63;70.57;100494.78;4184619;22;20520;-59
2021/12/07 08:21:51;;;;;;;37.85;23.58;;;;;;;1.68;70.87;100489.09;4173149;28;20102;-59
2021/12/07 08:23:54;;;;;;;38.38;24.65;;;;;;;1.76;70.68;100497.16;4174210;28;20037;-58
2021/12/07 08:25:57;;;;;;;39.45;24.48;;;;;;;1.80;70.67;100501.66;4178965;28;20436;-61
2021/12/07 08:28:02;;;;;;;37.67;24.38;;;;;;;1.86;70.84;100508.78;4175323;28;20041;-60
2021/12/07 08:30:08;;;;;;;36.42;22.52;;;;;;;1.88;70.34;100509.72;4174725;28;20468;-63
2021/12/07 08:32:11;;;;;;;45.00;23.60;;;;;;;1.91;70.08;100502.16;4173844;28;20048;-64
2021/12/07 08:34:14;;;;;;;37.15;22.48;;;;;;;1.95;70.25;100501.53;4188037;22;20053;-57
2021/12/07 08:36:17;;;;;;;36.60;22.70;;;;;;;1.98;69.95;100514.50;4160870;28;20049;-61
2021/12/07 08:38:21;;;;;;;36.55;22.85;;;;;;;1.93;70.01;100508.28;4160147;28;20040;-59
2021/12/07 08:40:27;;;;;;;37.25;23.17;;;;;;;1.92;69.58;100507.38;4158497;28;20136;-57
2021/12/07 08:42:31;;;;;;;39.85;23.88;;;;;;;1.94;69.40;100506.59;4177563;28;20045;-60
2021/12/07 08:44:36;;;;;;;36.78;21.33;;;;;;;2.00;69.84;100507.78;4177921;28;20045;-58
2021/12/07 08:46:39;;;;;;;38.15;22.60;;;;;;;2.05;69.64;100498.63;4177590;28;20195;-58
2021/12/07 08:48:43;;;;;;;34.92;21.05;;;;;;;2.12;69.32;100498.91;4180022;28;20049;-59
2021/12/07 08:50:47;;;;;;;34.22;22.08;;;;;;;2.19;69.47;100500.97;4179589;28;20509;-59
2021/12/07 08:52:52;;;;;;;37.78;22.77;;;;;;;2.25;68.86;100511.53;4179966;28;20068;-56
2021/12/07 08:59:44;;;;;;;34.88;22.80;;;;;;;2.18;68.83;100512.91;4177483;28;20033;-54
2021/12/07 09:01:47;;;;;;;36.92;21.63;;;;;;;2.16;68.78;100518.78;4176793;28;20049;-55
2021/12/07 09:03:53;;;;;;;33.80;22.33;;;;;;;2.21;68.92;100510.50;4177058;28;20414;-57
2021/12/07 09:05:56;;;;;;;36.55;21.05;;;;;;;2.22;69.05;100512.28;4176416;28;20130;-53
2021/12/07 09:07:59;;;;;;;32.70;21.15;;;;;;;2.28;69.06;100519.38;4180748;28;20049;-57
2021/12/07 09:10:05;;;;;;;32.95;21.02;;;;;;;2.30;68.84;100514.31;4179964;28;20466;-57
2021/12/07 09:12:08;;;;;;;35.03;22.33;;;;;;;2.32;68.38;100508.44;4177660;28;20041;-57
2021/12/07 09:14:14;;;;;;;34.97;21.70;;;;;;;2.29;68.40;100516.00;4177059;28;20041;-58
2021/12/07 09:16:20;;;;;;;33.40;21.27;;;;;;;2.25;68.58;100514.09;4179766;28;20037;-58
2021/12/07 09:18:25;;;;;;;33.78;20.95;;;;;;;2.21;68.34;100512.19;4178843;28;20543;-55
2021/12/07 09:20:29;;;;;;;34.30;21.45;;;;;;;2.19;68.47;100511.22;4184626;23;20123;-57
2021/12/07 09:22:34;;;;;;;35.70;21.92;;;;;;;2.16;68.57;100505.94;4162903;28;20467;-58
2021/12/07 09:24:40;;;;;;;36.88;20.80;;;;;;;2.14;68.59;100497.31;4179001;28;20136;-61
2021/12/07 09:26:44;;;;;;;31.30;20.02;;;;;;;2.18;68.62;100506.91;4171284;28;20051;-58
2021/12/07 09:28:48;;;;;;;34.03;21.83;;;;;;;2.14;68.31;100512.69;4176735;28;20460;-59
2021/12/07 09:30:52;;;;;;;34.47;22.35;;;;;;;2.16;68.71;100511.06;4162038;28;20045;-60
2021/12/07 09:32:57;;;;;;;35.67;22.15;;;;;;;2.17;68.93;100502.59;4162149;28;20083;-63
2021/12/07 09:35:02;;;;;;;37.05;22.75;;;;;;;2.20;68.36;100513.00;4142953;28;20053;-61
2021/12/07 09:37:07;;;;;;;32.90;21.67;;;;;;;2.20;68.75;100511.28;4160084;28;20051;-62
2021/12/07 09:39:13;;;;;;;33.45;21.65;;;;;;;2.21;68.85;100514.75;4147936;28;20049;-61
2021/12/07 09:41:20;;;;;;;31.15;21.40;;;;;;;2.24;68.72;100509.78;4145624;28;20038;-60
2021/12/07 09:43:26;;;;;;;34.63;21.15;;;;;;;2.25;68.55;100507.28;4161651;28;20049;-57
2021/12/07 09:45:31;;;;;;;32.45;19.80;;;;;;;2.29;68.54;100507.44;4160206;28;20041;-59
2021/12/07 09:47:34;;;;;;;33.72;21.30;;;;;;;2.30;68.60;100506.63;4150604;28;20041;-59
2021/12/07 09:49:42;;;;;;;32.05;20.48;;;;;;;2.30;68.30;100510.06;4161438;28;20067;-60
2021/12/07 09:51:45;;;;;;;35.22;21.77;;;;;;;2.32;68.50;100513.56;4143883;28;20425;-60
2021/12/07 09:53:50;;;;;;;32.83;21.05;;;;;;;2.29;68.91;100518.56;4161240;28;20429;-61
2021/12/07 09:55:53;;;;;;;31.80;19.88;;;;;;;2.63;73.05;100525.31;4160213;28;20100;-61
2021/12/07 09:57:57;;;;;;;33.00;20.27;;;;;;;2.92;69.82;100515.50;4156175;28;20053;-62
2021/12/07 10:00:00;;;;;;;32.20;20.63;;;;;;;2.95;68.17;100507.97;4160510;28;20568;-60
2021/12/07 10:02:14;;;;;;;34.05;20.88;;;;;;;2.96;68.40;100515.75;4158837;28;20057;-60
2021/12/07 10:04:19;;;;;;;32.65;20.90;;;;;;;2.95;67.11;100513.97;4160593;28;20564;-61
2021/12/07 10:06:25;;;;;;;32.42;20.40;;;;;;;2.93;67.17;100515.56;4153252;28;20112;-60
2021/12/07 10:08:29;;;;;;;32.22;20.42;;;;;;;2.96;67.54;100509.72;4143667;28;20522;-58
2021/12/07 10:10:35;;;;;;;32.40;20.52;;;;;;;2.99;66.55;100517.56;4161291;28;20038;-58
2021/12/07 10:12:38;;;;;;;35.88;20.35;;;;;;;3.01;66.79;100517.63;4142348;28;20034;-58
2021/12/07 10:14:43;;;;;;;34.22;20.60;;;;;;;2.98;66.82;100513.25;4160660;28;20521;-58
2021/12/07 10:16:48;;;;;;;;;;;;;;;2.87;65.86;100517.00;4163242;28;20372;-60
2021/12/07 10:18:53;;;;;;;33.35;20.35;;;;;;;2.88;66.77;100516.19;4162221;28;20409;-59
2021/12/07 10:20:59;;;;;;;30.30;19.25;;;;;;;2.94;66.70;100516.47;4149180;28;20049;-62
2021/12/07 10:23:22;;;;;;;30.73;20.13;;;;;;;3.04;66.67;100513.50;4163654;28;20038;-59
2021/12/07 10:25:27;;;;;;;30.83;21.00;;;;;;;3.06;66.50;100523.84;4164367;28;20065;-58
2021/12/07 10:27:34;;;;;;;;;;;;;;;2.95;66.06;100526.81;4164854;28;20079;-59
2021/12/07 10:29:40;;;;;;;29.42;18.67;;;;;;;3.11;66.20;100513.00;4164758;28;19955;-58
2021/12/07 10:31:45;;;;;;;30.48;19.08;;;;;;;3.20;66.43;100514.19;4164130;28;20128;-58
2021/12/07 10:33:53;;;;;;;32.75;20.50;;;;;;;3.28;66.30;100512.84;4163733;28;20060;-58
2021/12/07 10:36:08;;;;;;;30.90;19.08;;;;;;;3.27;65.37;100511.09;4164333;28;20037;-59
2021/12/07 10:38:15;;;;;;;38.05;19.95;;;;;;;3.27;66.19;100516.22;4149528;28;20051;-60
2021/12/07 10:40:18;;;;;;;30.77;19.08;;;;;;;3.24;66.41;100506.72;4161546;28;20391;-62
2021/12/07 10:42:24;;;;;;;29.25;19.15;;;;;;;3.24;66.31;100504.16;4166623;28;20046;-59
2021/12/07 10:44:39;;;;;;;29.10;18.23;;;;;;;3.17;66.06;100498.66;4160736;28;20117;-59
2021/12/07 10:46:50;;;;;;;30.23;19.48;;;;;;;3.13;65.64;100506.22;4161919;28;20041;-57
2021/12/07 10:49:09;;;;;;;30.00;18.40;;;;;;;3.07;66.49;100511.09;4162793;28;20307;-63
2021/12/07 10:51:12;;;;;;;32.70;18.50;;;;;;;3.03;66.68;100501.47;4164336;28;20049;-64
2021/12/07 10:53:17;;;;;;;30.08;19.45;;;;;;;3.05;66.57;100506.69;4162601;28;20045;-61
2021/12/07 10:55:22;;;;;;;31.80;18.85;;;;;;;3.05;66.54;100504.13;4148006;28;20045;-61